sensor_id;sensor_type;location;lat;lon;timestamp;temperature;humidity
13960;DHT22;7052;51.050;3.716;2022-09-16T00:00:44;14.40;99.90
13960;DHT22;7052;51.050;3.716;2022-09-16T00:03:11;14.40;99.90
13960;DHT22;7052;51.050;3.716;2022-09-16T00:05:45;14.40;99.90
13960;DHT22;7052;51.050;3.716;2022-09-16T00:08:13;14.30;99.90
13960;DHT22;7052;51.050;3.716;2022-09-16T00:10:40;14.40;99.90
13960;DHT22;7052;51.050;3.716;2022-09-16T00:13:08;14.30;99.90
13960;DHT22;7052;51.050;3.716;2022-09-16T00:15:36;14.30;99.90
13960;DHT22;7052;51.050;3.716;2022-09-16T00:18:03;14.40;99.90
13960;DHT22;7052;51.050;3.716;2022-09-16T00:20:30;14.30;99.90
13960;DHT22;7052;51.050;3.716;2022-09-16T00:22:58;14.20;99.90
13960;DHT22;7052;51.050;3.716;2022-09-16T00:25:25;14.20;99.90
13960;DHT22;7052;51.050;3.716;2022-09-16T00:27:52;14.20;99.90
13960;DHT22;7052;51.050;3.716;2022-09-16T00:30:19;14.20;99.90
13960;DHT22;7052;51.050;3.716;2022-09-16T00:32:45;14.20;99.90
13960;DHT22;7052;51.050;3.716;2022-09-16T00:35:12;14.20;99.90
13960;DHT22;7052;51.050;3.716;2022-09-16T00:37:39;14.20;99.90
13960;DHT22;7052;51.050;3.716;2022-09-16T00:40:08;14.20;99.90
13960;DHT22;7052;51.050;3.716;2022-09-16T00:42:38;14.20;99.90
13960;DHT22;7052;51.050;3.716;2022-09-16T00:45:13;14.20;99.90
13960;DHT22;7052;51.050;3.716;2022-09-16T00:47:43;14.20;99.90
13960;DHT22;7052;51.050;3.716;2022-09-16T00:50:15;14.20;99.90
13960;DHT22;7052;51.050;3.716;2022-09-16T00:52:44;14.20;99.90
13960;DHT22;7052;51.050;3.716;2022-09-16T00:55:16;14.20;99.90
13960;DHT22;7052;51.050;3.716;2022-09-16T00:57:44;14.20;99.90
13960;DHT22;7052;51.050;3.716;2022-09-16T01:00:12;14.20;99.90
13960;DHT22;7052;51.050;3.716;2022-09-16T01:02:39;14.10;99.90
13960;DHT22;7052;51.050;3.716;2022-09-16T01:05:09;14.10;99.90
13960;DHT22;7052;51.050;3.716;2022-09-16T01:07:42;14.10;99.90
13960;DHT22;7052;51.050;3.716;2022-09-16T01:10:10;14.10;99.90
13960;DHT22;7052;51.050;3.716;2022-09-16T01:12:39;14.10;99.90
13960;DHT22;7052;51.050;3.716;2022-09-16T01:15:11;14.10;99.90
13960;DHT22;7052;51.050;3.716;2022-09-16T01:17:59;14.00;99.90
13960;DHT22;7052;51.050;3.716;2022-09-16T01:21:05;14.00;99.90
13960;DHT22;7052;51.050;3.716;2022-09-16T01:24:00;14.00;99.90
13960;DHT22;7052;51.050;3.716;2022-09-16T01:26:46;14.00;99.90
13960;DHT22;7052;51.050;3.716;2022-09-16T01:29:31;14.00;99.90
13960;DHT22;7052;51.050;3.716;2022-09-16T01:32:05;14.00;99.90
13960;DHT22;7052;51.050;3.716;2022-09-16T01:34:43;14.00;99.90
13960;DHT22;7052;51.050;3.716;2022-09-16T01:37:20;13.90;99.90
13960;DHT22;7052;51.050;3.716;2022-09-16T01:39:59;13.80;99.90
13960;DHT22;7052;51.050;3.716;2022-09-16T01:42:36;13.70;99.90
13960;DHT22;7052;51.050;3.716;2022-09-16T01:45:07;13.70;99.90
13960;DHT22;7052;51.050;3.716;2022-09-16T01:47:43;13.60;99.90
13960;DHT22;7052;51.050;3.716;2022-09-16T01:50:18;13.60;99.90
13960;DHT22;7052;51.050;3.716;2022-09-16T01:52:51;13.60;99.90
13960;DHT22;7052;51.050;3.716;2022-09-16T01:55:25;13.50;99.90
13960;DHT22;7052;51.050;3.716;2022-09-16T01:57:57;13.50;99.90
13960;DHT22;7052;51.050;3.716;2022-09-16T02:00:25;13.50;99.90
13960;DHT22;7052;51.050;3.716;2022-09-16T02:02:55;13.40;99.90
13960;DHT22;7052;51.050;3.716;2022-09-16T02:05:27;13.40;99.90
13960;DHT22;7052;51.050;3.716;2022-09-16T02:08:00;13.40;99.90
13960;DHT22;7052;51.050;3.716;2022-09-16T02:10:30;13.40;99.90
13960;DHT22;7052;51.050;3.716;2022-09-16T02:13:04;13.30;99.90
13960;DHT22;7052;51.050;3.716;2022-09-16T02:15:32;13.30;99.90
13960;DHT22;7052;51.050;3.716;2022-09-16T02:18:04;13.20;99.90
13960;DHT22;7052;51.050;3.716;2022-09-16T02:20:35;13.20;99.90
13960;DHT22;7052;51.050;3.716;2022-09-16T02:23:08;13.20;99.90
13960;DHT22;7052;51.050;3.716;2022-09-16T02:25:38;13.10;99.90
13960;DHT22;7052;51.050;3.716;2022-09-16T02:28:09;13.10;99.90
13960;DHT22;7052;51.050;3.716;2022-09-16T02:30:42;13.10;99.90
13960;DHT22;7052;51.050;3.716;2022-09-16T02:33:11;13.10;99.90
13960;DHT22;7052;51.050;3.716;2022-09-16T02:35:40;13.10;99.90
13960;DHT22;7052;51.050;3.716;2022-09-16T02:38:11;13.00;99.90
13960;DHT22;7052;51.050;3.716;2022-09-16T02:40:45;13.00;99.90
13960;DHT22;7052;51.050;3.716;2022-09-16T02:43:13;13.00;99.90
13960;DHT22;7052;51.050;3.716;2022-09-16T02:45:47;13.00;99.90
13960;DHT22;7052;51.050;3.716;2022-09-16T02:48:27;13.00;99.90
13960;DHT22;7052;51.050;3.716;2022-09-16T02:51:03;13.10;99.90
13960;DHT22;7052;51.050;3.716;2022-09-16T02:53:41;13.10;99.90
13960;DHT22;7052;51.050;3.716;2022-09-16T02:56:14;13.10;99.90
13960;DHT22;7052;51.050;3.716;2022-09-16T02:58:43;13.10;99.90
13960;DHT22;7052;51.050;3.716;2022-09-16T03:01:10;13.10;99.90
13960;DHT22;7052;51.050;3.716;2022-09-16T03:03:40;13.20;99.90
13960;DHT22;7052;51.050;3.716;2022-09-16T03:06:16;13.20;99.90
13960;DHT22;7052;51.050;3.716;2022-09-16T03:08:43;13.20;99.90
13960;DHT22;7052;51.050;3.716;2022-09-16T03:11:21;13.20;99.90
13960;DHT22;7052;51.050;3.716;2022-09-16T03:13:55;13.20;99.90
13960;DHT22;7052;51.050;3.716;2022-09-16T03:16:29;13.20;99.90
13960;DHT22;7052;51.050;3.716;2022-09-16T03:19:11;13.10;99.90
13960;DHT22;7052;51.050;3.716;2022-09-16T03:21:46;13.20;99.90
13960;DHT22;7052;51.050;3.716;2022-09-16T03:24:24;13.10;99.90
13960;DHT22;7052;51.050;3.716;2022-09-16T03:26:57;13.10;99.90
13960;DHT22;7052;51.050;3.716;2022-09-16T03:29:32;13.10;99.90
13960;DHT22;7052;51.050;3.716;2022-09-16T03:32:04;13.00;99.90
13960;DHT22;7052;51.050;3.716;2022-09-16T03:34:37;13.00;99.90
13960;DHT22;7052;51.050;3.716;2022-09-16T03:37:07;13.00;99.90
13960;DHT22;7052;51.050;3.716;2022-09-16T03:39:34;13.00;99.90
13960;DHT22;7052;51.050;3.716;2022-09-16T03:42:04;13.00;99.90
13960;DHT22;7052;51.050;3.716;2022-09-16T03:44:33;13.00;99.90
13960;DHT22;7052;51.050;3.716;2022-09-16T03:47:00;13.10;99.90
13960;DHT22;7052;51.050;3.716;2022-09-16T03:49:27;13.10;99.90
13960;DHT22;7052;51.050;3.716;2022-09-16T03:51:56;13.10;99.90
13960;DHT22;7052;51.050;3.716;2022-09-16T03:54:23;13.10;99.90
13960;DHT22;7052;51.050;3.716;2022-09-16T03:56:50;13.10;99.90
13960;DHT22;7052;51.050;3.716;2022-09-16T03:59:18;13.10;99.90
13960;DHT22;7052;51.050;3.716;2022-09-16T04:01:44;13.20;99.90
13960;DHT22;7052;51.050;3.716;2022-09-16T04:04:11;13.20;99.90
13960;DHT22;7052;51.050;3.716;2022-09-16T04:06:38;13.20;99.90
13960;DHT22;7052;51.050;3.716;2022-09-16T04:09:09;13.20;99.90
13960;DHT22;7052;51.050;3.716;2022-09-16T04:11:36;13.20;99.90
13960;DHT22;7052;51.050;3.716;2022-09-16T04:14:03;13.30;99.90
13960;DHT22;7052;51.050;3.716;2022-09-16T04:16:30;13.30;99.90
13960;DHT22;7052;51.050;3.716;2022-09-16T04:18:57;13.30;99.90
13960;DHT22;7052;51.050;3.716;2022-09-16T04:21:24;13.30;99.90
13960;DHT22;7052;51.050;3.716;2022-09-16T04:23:51;13.30;99.90
13960;DHT22;7052;51.050;3.716;2022-09-16T04:26:20;13.30;99.90
13960;DHT22;7052;51.050;3.716;2022-09-16T04:28:47;13.40;99.90
13960;DHT22;7052;51.050;3.716;2022-09-16T04:31:14;13.40;99.90
13960;DHT22;7052;51.050;3.716;2022-09-16T04:33:42;13.50;99.90
13960;DHT22;7052;51.050;3.716;2022-09-16T04:36:10;13.50;99.90
13960;DHT22;7052;51.050;3.716;2022-09-16T04:38:38;13.50;99.90
13960;DHT22;7052;51.050;3.716;2022-09-16T04:41:07;13.50;99.90
13960;DHT22;7052;51.050;3.716;2022-09-16T04:43:36;13.40;99.90
13960;DHT22;7052;51.050;3.716;2022-09-16T04:46:02;13.40;99.90
13960;DHT22;7052;51.050;3.716;2022-09-16T04:48:31;13.40;99.90
13960;DHT22;7052;51.050;3.716;2022-09-16T04:51:02;13.40;99.90
13960;DHT22;7052;51.050;3.716;2022-09-16T04:53:29;13.40;99.90
13960;DHT22;7052;51.050;3.716;2022-09-16T04:56:02;13.40;99.90
13960;DHT22;7052;51.050;3.716;2022-09-16T04:58:29;13.40;99.90
13960;DHT22;7052;51.050;3.716;2022-09-16T05:01:02;13.30;99.90
13960;DHT22;7052;51.050;3.716;2022-09-16T05:03:29;13.30;99.90
13960;DHT22;7052;51.050;3.716;2022-09-16T05:06:03;13.40;99.90
13960;DHT22;7052;51.050;3.716;2022-09-16T05:08:30;13.30;99.90
13960;DHT22;7052;51.050;3.716;2022-09-16T05:11:02;13.30;99.90
13960;DHT22;7052;51.050;3.716;2022-09-16T05:13:29;13.30;99.90
13960;DHT22;7052;51.050;3.716;2022-09-16T05:16:01;13.30;99.90
13960;DHT22;7052;51.050;3.716;2022-09-16T05:18:29;13.30;99.90
13960;DHT22;7052;51.050;3.716;2022-09-16T05:20:57;13.30;99.90
13960;DHT22;7052;51.050;3.716;2022-09-16T05:23:24;13.30;99.90
13960;DHT22;7052;51.050;3.716;2022-09-16T05:25:52;13.40;99.90
13960;DHT22;7052;51.050;3.716;2022-09-16T05:28:19;13.20;99.90
13960;DHT22;7052;51.050;3.716;2022-09-16T05:30:46;13.20;99.90
13960;DHT22;7052;51.050;3.716;2022-09-16T05:33:14;13.20;99.90
13960;DHT22;7052;51.050;3.716;2022-09-16T05:35:41;13.20;99.90
13960;DHT22;7052;51.050;3.716;2022-09-16T05:38:07;13.10;99.90
13960;DHT22;7052;51.050;3.716;2022-09-16T05:40:34;13.10;99.90
13960;DHT22;7052;51.050;3.716;2022-09-16T05:43:01;13.00;99.90
13960;DHT22;7052;51.050;3.716;2022-09-16T05:45:28;13.00;99.90
13960;DHT22;7052;51.050;3.716;2022-09-16T05:47:54;13.00;99.90
13960;DHT22;7052;51.050;3.716;2022-09-16T05:50:23;13.00;99.90
13960;DHT22;7052;51.050;3.716;2022-09-16T05:52:49;13.00;99.90
13960;DHT22;7052;51.050;3.716;2022-09-16T05:55:16;13.00;99.90
13960;DHT22;7052;51.050;3.716;2022-09-16T05:57:43;13.00;99.90
13960;DHT22;7052;51.050;3.716;2022-09-16T06:00:10;13.00;99.90
13960;DHT22;7052;51.050;3.716;2022-09-16T06:02:39;13.00;99.90
13960;DHT22;7052;51.050;3.716;2022-09-16T06:05:06;13.00;99.90
13960;DHT22;7052;51.050;3.716;2022-09-16T06:07:35;13.00;99.90
13960;DHT22;7052;51.050;3.716;2022-09-16T06:10:02;13.00;99.90
13960;DHT22;7052;51.050;3.716;2022-09-16T06:12:29;13.00;99.90
13960;DHT22;7052;51.050;3.716;2022-09-16T06:14:56;13.00;99.90
13960;DHT22;7052;51.050;3.716;2022-09-16T06:17:23;13.00;99.90
13960;DHT22;7052;51.050;3.716;2022-09-16T06:19:50;13.00;99.90
13960;DHT22;7052;51.050;3.716;2022-09-16T06:22:17;13.00;99.90
13960;DHT22;7052;51.050;3.716;2022-09-16T06:24:45;13.00;99.90
13960;DHT22;7052;51.050;3.716;2022-09-16T06:27:11;12.90;99.90
13960;DHT22;7052;51.050;3.716;2022-09-16T06:29:38;13.00;99.90
13960;DHT22;7052;51.050;3.716;2022-09-16T06:32:05;13.00;99.90
13960;DHT22;7052;51.050;3.716;2022-09-16T06:34:32;13.00;99.90
13960;DHT22;7052;51.050;3.716;2022-09-16T06:36:58;13.10;99.90
13960;DHT22;7052;51.050;3.716;2022-09-16T06:39:25;13.20;99.90
13960;DHT22;7052;51.050;3.716;2022-09-16T06:41:53;13.30;99.90
13960;DHT22;7052;51.050;3.716;2022-09-16T06:44:20;13.40;99.90
13960;DHT22;7052;51.050;3.716;2022-09-16T06:46:47;13.50;99.90
13960;DHT22;7052;51.050;3.716;2022-09-16T06:49:14;13.50;99.90
13960;DHT22;7052;51.050;3.716;2022-09-16T06:51:41;13.60;99.90
13960;DHT22;7052;51.050;3.716;2022-09-16T06:54:09;13.70;99.90
13960;DHT22;7052;51.050;3.716;2022-09-16T06:56:37;13.80;99.90
13960;DHT22;7052;51.050;3.716;2022-09-16T06:59:07;14.00;99.90
13960;DHT22;7052;51.050;3.716;2022-09-16T07:01:35;14.20;99.90
13960;DHT22;7052;51.050;3.716;2022-09-16T07:04:04;14.30;99.90
13960;DHT22;7052;51.050;3.716;2022-09-16T07:06:31;14.30;99.90
13960;DHT22;7052;51.050;3.716;2022-09-16T07:08:59;14.30;99.90
13960;DHT22;7052;51.050;3.716;2022-09-16T07:11:25;14.30;99.90
13960;DHT22;7052;51.050;3.716;2022-09-16T07:13:52;14.30;99.90
13960;DHT22;7052;51.050;3.716;2022-09-16T07:16:22;14.30;99.90
13960;DHT22;7052;51.050;3.716;2022-09-16T07:18:52;14.20;99.90
13960;DHT22;7052;51.050;3.716;2022-09-16T07:21:20;14.10;99.90
13960;DHT22;7052;51.050;3.716;2022-09-16T07:23:49;14.00;99.90
13960;DHT22;7052;51.050;3.716;2022-09-16T07:26:17;14.00;99.90
13960;DHT22;7052;51.050;3.716;2022-09-16T07:28:46;14.00;99.90
13960;DHT22;7052;51.050;3.716;2022-09-16T07:31:14;13.90;99.90
13960;DHT22;7052;51.050;3.716;2022-09-16T07:33:45;13.90;99.90
13960;DHT22;7052;51.050;3.716;2022-09-16T07:36:14;13.90;99.90
13960;DHT22;7052;51.050;3.716;2022-09-16T07:38:41;13.90;99.90
13960;DHT22;7052;51.050;3.716;2022-09-16T07:41:10;13.90;99.90
13960;DHT22;7052;51.050;3.716;2022-09-16T07:43:37;13.90;99.90
13960;DHT22;7052;51.050;3.716;2022-09-16T07:46:05;13.90;99.90
13960;DHT22;7052;51.050;3.716;2022-09-16T07:48:33;13.80;99.90
13960;DHT22;7052;51.050;3.716;2022-09-16T07:51:03;13.70;99.90
13960;DHT22;7052;51.050;3.716;2022-09-16T07:53:31;13.70;99.90
13960;DHT22;7052;51.050;3.716;2022-09-16T07:56:00;13.70;99.90
13960;DHT22;7052;51.050;3.716;2022-09-16T07:58:28;13.80;99.90
13960;DHT22;7052;51.050;3.716;2022-09-16T08:00:55;13.80;99.90
13960;DHT22;7052;51.050;3.716;2022-09-16T08:03:22;14.00;99.90
13960;DHT22;7052;51.050;3.716;2022-09-16T08:05:48;14.10;99.90
13960;DHT22;7052;51.050;3.716;2022-09-16T08:08:17;14.10;99.90
13960;DHT22;7052;51.050;3.716;2022-09-16T08:10:52;14.20;99.90
13960;DHT22;7052;51.050;3.716;2022-09-16T08:13:19;14.20;99.90
13960;DHT22;7052;51.050;3.716;2022-09-16T08:15:45;14.30;99.90
13960;DHT22;7052;51.050;3.716;2022-09-16T08:18:12;14.40;99.90
13960;DHT22;7052;51.050;3.716;2022-09-16T08:20:39;14.50;99.90
13960;DHT22;7052;51.050;3.716;2022-09-16T08:23:06;14.70;99.90
13960;DHT22;7052;51.050;3.716;2022-09-16T08:25:34;14.80;99.90
13960;DHT22;7052;51.050;3.716;2022-09-16T08:28:01;14.90;99.90
13960;DHT22;7052;51.050;3.716;2022-09-16T08:30:28;15.10;99.90
13960;DHT22;7052;51.050;3.716;2022-09-16T08:32:55;15.10;99.90
13960;DHT22;7052;51.050;3.716;2022-09-16T08:35:22;15.30;99.90
13960;DHT22;7052;51.050;3.716;2022-09-16T08:37:50;15.40;99.90
13960;DHT22;7052;51.050;3.716;2022-09-16T08:40:20;15.50;99.90
13960;DHT22;7052;51.050;3.716;2022-09-16T08:42:58;15.60;99.90
13960;DHT22;7052;51.050;3.716;2022-09-16T08:45:29;15.60;99.90
13960;DHT22;7052;51.050;3.716;2022-09-16T08:48:18;15.60;99.90
13960;DHT22;7052;51.050;3.716;2022-09-16T08:50:47;15.60;99.90
13960;DHT22;7052;51.050;3.716;2022-09-16T08:53:24;15.60;99.90
13960;DHT22;7052;51.050;3.716;2022-09-16T08:55:53;15.80;99.90
13960;DHT22;7052;51.050;3.716;2022-09-16T08:58:22;15.90;99.90
13960;DHT22;7052;51.050;3.716;2022-09-16T09:00:53;16.00;99.90
13960;DHT22;7052;51.050;3.716;2022-09-16T09:03:30;16.10;99.90
13960;DHT22;7052;51.050;3.716;2022-09-16T09:06:02;16.30;99.90
13960;DHT22;7052;51.050;3.716;2022-09-16T09:08:40;16.40;99.90
13960;DHT22;7052;51.050;3.716;2022-09-16T09:11:14;16.30;99.90
13960;DHT22;7052;51.050;3.716;2022-09-16T09:13:55;16.40;99.90
13960;DHT22;7052;51.050;3.716;2022-09-16T09:16:32;16.20;99.90
13960;DHT22;7052;51.050;3.716;2022-09-16T09:19:18;16.20;99.90
13960;DHT22;7052;51.050;3.716;2022-09-16T09:21:55;16.00;99.90
13960;DHT22;7052;51.050;3.716;2022-09-16T09:24:35;15.90;99.90
13960;DHT22;7052;51.050;3.716;2022-09-16T09:27:08;16.00;99.90
13960;DHT22;7052;51.050;3.716;2022-09-16T09:29:52;15.90;99.90
13960;DHT22;7052;51.050;3.716;2022-09-16T09:32:25;15.90;99.90
13960;DHT22;7052;51.050;3.716;2022-09-16T09:35:03;15.80;99.90
13960;DHT22;7052;51.050;3.716;2022-09-16T09:37:47;15.60;99.90
13960;DHT22;7052;51.050;3.716;2022-09-16T09:40:20;15.50;99.90
13960;DHT22;7052;51.050;3.716;2022-09-16T09:42:53;15.50;99.90
13960;DHT22;7052;51.050;3.716;2022-09-16T09:45:28;15.40;99.90
13960;DHT22;7052;51.050;3.716;2022-09-16T09:48:01;15.30;99.90
13960;DHT22;7052;51.050;3.716;2022-09-16T09:50:35;15.40;99.90
13960;DHT22;7052;51.050;3.716;2022-09-16T09:53:11;15.40;99.90
13960;DHT22;7052;51.050;3.716;2022-09-16T09:55:40;15.50;99.90
13960;DHT22;7052;51.050;3.716;2022-09-16T09:58:20;15.70;99.90
13960;DHT22;7052;51.050;3.716;2022-09-16T10:00:50;15.70;99.90
13960;DHT22;7052;51.050;3.716;2022-09-16T10:03:20;15.80;99.90
13960;DHT22;7052;51.050;3.716;2022-09-16T10:05:47;16.00;99.90
13960;DHT22;7052;51.050;3.716;2022-09-16T10:08:22;16.00;99.90
13960;DHT22;7052;51.050;3.716;2022-09-16T10:10:52;16.00;99.90
13960;DHT22;7052;51.050;3.716;2022-09-16T10:13:20;16.00;99.90
13960;DHT22;7052;51.050;3.716;2022-09-16T10:15:48;15.90;99.90
13960;DHT22;7052;51.050;3.716;2022-09-16T10:18:24;15.90;99.90
13960;DHT22;7052;51.050;3.716;2022-09-16T10:20:58;16.00;99.90
13960;DHT22;7052;51.050;3.716;2022-09-16T10:23:26;16.20;99.90
13960;DHT22;7052;51.050;3.716;2022-09-16T10:26:03;16.40;99.90
13960;DHT22;7052;51.050;3.716;2022-09-16T10:28:31;16.60;99.90
13960;DHT22;7052;51.050;3.716;2022-09-16T10:30:58;16.80;99.90
13960;DHT22;7052;51.050;3.716;2022-09-16T10:33:30;16.90;99.90
13960;DHT22;7052;51.050;3.716;2022-09-16T10:35:58;17.00;99.90
13960;DHT22;7052;51.050;3.716;2022-09-16T10:38:34;17.10;99.90
13960;DHT22;7052;51.050;3.716;2022-09-16T10:41:05;17.30;99.90
13960;DHT22;7052;51.050;3.716;2022-09-16T10:43:32;17.20;99.90
13960;DHT22;7052;51.050;3.716;2022-09-16T10:45:59;17.20;99.90
13960;DHT22;7052;51.050;3.716;2022-09-16T10:48:29;17.20;99.90
13960;DHT22;7052;51.050;3.716;2022-09-16T10:50:58;17.20;99.90
13960;DHT22;7052;51.050;3.716;2022-09-16T10:53:30;17.10;99.90
13960;DHT22;7052;51.050;3.716;2022-09-16T10:55:58;17.10;99.90
13960;DHT22;7052;51.050;3.716;2022-09-16T10:58:25;16.90;99.90
13960;DHT22;7052;51.050;3.716;2022-09-16T11:01:01;16.70;99.90
13960;DHT22;7052;51.050;3.716;2022-09-16T11:04:02;16.30;99.90
13960;DHT22;7052;51.050;3.716;2022-09-16T11:06:42;16.20;99.90
13960;DHT22;7052;51.050;3.716;2022-09-16T11:09:15;16.00;99.90
13960;DHT22;7052;51.050;3.716;2022-09-16T11:11:52;15.90;99.90
13960;DHT22;7052;51.050;3.716;2022-09-16T11:14:29;15.90;99.90
13960;DHT22;7052;51.050;3.716;2022-09-16T11:17:14;16.10;99.90
13960;DHT22;7052;51.050;3.716;2022-09-16T11:19:56;16.10;99.90
13960;DHT22;7052;51.050;3.716;2022-09-16T11:22:30;16.10;99.90
13960;DHT22;7052;51.050;3.716;2022-09-16T11:25:26;16.10;99.90
13960;DHT22;7052;51.050;3.716;2022-09-16T11:28:03;16.20;99.90
13960;DHT22;7052;51.050;3.716;2022-09-16T11:30:39;16.20;99.90
13960;DHT22;7052;51.050;3.716;2022-09-16T11:33:23;16.20;99.90
13960;DHT22;7052;51.050;3.716;2022-09-16T11:36:20;16.30;99.90
13960;DHT22;7052;51.050;3.716;2022-09-16T11:38:58;16.30;99.90
13960;DHT22;7052;51.050;3.716;2022-09-16T11:41:32;16.20;99.90
13960;DHT22;7052;51.050;3.716;2022-09-16T11:44:31;16.20;99.90
13960;DHT22;7052;51.050;3.716;2022-09-16T11:47:16;16.20;99.90
13960;DHT22;7052;51.050;3.716;2022-09-16T11:49:58;16.30;99.90
13960;DHT22;7052;51.050;3.716;2022-09-16T11:55:35;16.30;99.90
13960;DHT22;7052;51.050;3.716;2022-09-16T11:58:20;16.40;99.90
13960;DHT22;7052;51.050;3.716;2022-09-16T12:00:48;16.50;99.90
13960;DHT22;7052;51.050;3.716;2022-09-16T12:03:24;16.60;99.90
13960;DHT22;7052;51.050;3.716;2022-09-16T12:05:57;16.40;99.90
13960;DHT22;7052;51.050;3.716;2022-09-16T12:08:33;16.40;99.90
13960;DHT22;7052;51.050;3.716;2022-09-16T12:11:15;16.40;99.90
13960;DHT22;7052;51.050;3.716;2022-09-16T12:13:47;16.40;99.90
13960;DHT22;7052;51.050;3.716;2022-09-16T12:16:18;16.60;99.90
13960;DHT22;7052;51.050;3.716;2022-09-16T12:18:49;16.70;99.90
13960;DHT22;7052;51.050;3.716;2022-09-16T12:21:21;16.80;99.90
13960;DHT22;7052;51.050;3.716;2022-09-16T12:23:56;17.00;99.90
13960;DHT22;7052;51.050;3.716;2022-09-16T12:26:28;17.20;99.90
13960;DHT22;7052;51.050;3.716;2022-09-16T12:29:02;17.20;99.90
13960;DHT22;7052;51.050;3.716;2022-09-16T12:31:33;17.10;99.90
13960;DHT22;7052;51.050;3.716;2022-09-16T12:34:03;17.10;99.90
13960;DHT22;7052;51.050;3.716;2022-09-16T12:36:34;16.90;99.90
13960;DHT22;7052;51.050;3.716;2022-09-16T12:39:02;16.80;99.90
13960;DHT22;7052;51.050;3.716;2022-09-16T12:44:44;16.60;98.00
13960;DHT22;7052;51.050;3.716;2022-09-16T12:47:35;16.40;99.30
13960;DHT22;7052;51.050;3.716;2022-09-16T12:50:25;16.20;99.80
13960;DHT22;7052;51.050;3.716;2022-09-16T12:56:07;15.80;99.90
13960;DHT22;7052;51.050;3.716;2022-09-16T12:58:56;16.00;99.90
13960;DHT22;7052;51.050;3.716;2022-09-16T13:01:25;16.20;99.90
13960;DHT22;7052;51.050;3.716;2022-09-16T13:03:56;16.50;99.90
13960;DHT22;7052;51.050;3.716;2022-09-16T13:06:26;16.50;99.90
13960;DHT22;7052;51.050;3.716;2022-09-16T13:08:54;16.60;99.90
13960;DHT22;7052;51.050;3.716;2022-09-16T13:11:24;16.80;99.90
13960;DHT22;7052;51.050;3.716;2022-09-16T13:13:54;17.00;99.30
13960;DHT22;7052;51.050;3.716;2022-09-16T13:16:33;17.10;97.70
13960;DHT22;7052;51.050;3.716;2022-09-16T13:19:28;17.20;95.60
13960;DHT22;7052;51.050;3.716;2022-09-16T13:22:08;17.40;86.40
13960;DHT22;7052;51.050;3.716;2022-09-16T13:24:39;17.50;87.50
13960;DHT22;7052;51.050;3.716;2022-09-16T13:27:27;17.70;79.60
13960;DHT22;7052;51.050;3.716;2022-09-16T13:30:15;17.80;72.90
13960;DHT22;7052;51.050;3.716;2022-09-16T13:32:58;17.80;71.20
13960;DHT22;7052;51.050;3.716;2022-09-16T13:35:36;17.70;72.00
13960;DHT22;7052;51.050;3.716;2022-09-16T13:38:24;17.40;78.80
13960;DHT22;7052;51.050;3.716;2022-09-16T13:41:01;17.20;85.40
13960;DHT22;7052;51.050;3.716;2022-09-16T13:43:31;17.10;89.20
13960;DHT22;7052;51.050;3.716;2022-09-16T13:46:06;17.00;91.00
13960;DHT22;7052;51.050;3.716;2022-09-16T13:48:53;17.10;92.70
13960;DHT22;7052;51.050;3.716;2022-09-16T13:51:22;17.40;92.60
13960;DHT22;7052;51.050;3.716;2022-09-16T13:53:50;17.50;92.90
13960;DHT22;7052;51.050;3.716;2022-09-16T13:56:32;17.50;93.30
13960;DHT22;7052;51.050;3.716;2022-09-16T13:59:12;17.10;96.40
13960;DHT22;7052;51.050;3.716;2022-09-16T14:01:48;16.50;99.90
13960;DHT22;7052;51.050;3.716;2022-09-16T14:04:24;15.60;99.90
13960;DHT22;7052;51.050;3.716;2022-09-16T14:07:11;14.70;99.90
13960;DHT22;7052;51.050;3.716;2022-09-16T14:09:50;13.90;99.90
13960;DHT22;7052;51.050;3.716;2022-09-16T14:12:25;13.30;99.90
13960;DHT22;7052;51.050;3.716;2022-09-16T14:14:58;13.10;99.90
13960;DHT22;7052;51.050;3.716;2022-09-16T14:17:37;13.10;99.90
13960;DHT22;7052;51.050;3.716;2022-09-16T14:20:05;13.10;99.90
13960;DHT22;7052;51.050;3.716;2022-09-16T14:22:36;13.10;99.90
13960;DHT22;7052;51.050;3.716;2022-09-16T14:27:45;13.20;99.90
13960;DHT22;7052;51.050;3.716;2022-09-16T14:30:15;13.10;99.90
13960;DHT22;7052;51.050;3.716;2022-09-16T14:32:42;13.10;99.90
13960;DHT22;7052;51.050;3.716;2022-09-16T14:35:17;13.10;99.90
13960;DHT22;7052;51.050;3.716;2022-09-16T14:37:50;13.20;99.90
13960;DHT22;7052;51.050;3.716;2022-09-16T14:40:19;13.40;99.90
13960;DHT22;7052;51.050;3.716;2022-09-16T14:42:49;13.20;99.90
13960;DHT22;7052;51.050;3.716;2022-09-16T14:45:19;13.10;99.90
13960;DHT22;7052;51.050;3.716;2022-09-16T14:47:47;12.80;99.90
13960;DHT22;7052;51.050;3.716;2022-09-16T14:50:19;12.70;99.90
13960;DHT22;7052;51.050;3.716;2022-09-16T14:52:53;12.60;99.90
13960;DHT22;7052;51.050;3.716;2022-09-16T14:55:22;12.70;99.90
13960;DHT22;7052;51.050;3.716;2022-09-16T14:57:50;12.40;99.90
13960;DHT22;7052;51.050;3.716;2022-09-16T15:00:19;12.30;99.90
13960;DHT22;7052;51.050;3.716;2022-09-16T15:02:48;12.20;99.90
13960;DHT22;7052;51.050;3.716;2022-09-16T15:05:23;12.20;99.90
13960;DHT22;7052;51.050;3.716;2022-09-16T15:07:53;12.30;99.90
13960;DHT22;7052;51.050;3.716;2022-09-16T15:10:25;12.20;99.90
13960;DHT22;7052;51.050;3.716;2022-09-16T15:12:57;12.20;99.90
13960;DHT22;7052;51.050;3.716;2022-09-16T15:15:27;12.20;99.90
13960;DHT22;7052;51.050;3.716;2022-09-16T15:17:56;12.10;99.90
13960;DHT22;7052;51.050;3.716;2022-09-16T15:20:30;12.20;99.90
13960;DHT22;7052;51.050;3.716;2022-09-16T15:22:58;12.20;99.90
13960;DHT22;7052;51.050;3.716;2022-09-16T15:25:28;12.30;99.90
13960;DHT22;7052;51.050;3.716;2022-09-16T15:28:03;12.30;99.90
13960;DHT22;7052;51.050;3.716;2022-09-16T15:30:33;12.40;99.90
13960;DHT22;7052;51.050;3.716;2022-09-16T15:33:00;12.40;99.90
13960;DHT22;7052;51.050;3.716;2022-09-16T15:35:27;12.50;99.90
13960;DHT22;7052;51.050;3.716;2022-09-16T15:37:56;12.50;99.90
13960;DHT22;7052;51.050;3.716;2022-09-16T15:40:31;12.50;99.90
13960;DHT22;7052;51.050;3.716;2022-09-16T15:43:02;12.50;99.90
13960;DHT22;7052;51.050;3.716;2022-09-16T15:45:29;12.60;99.90
13960;DHT22;7052;51.050;3.716;2022-09-16T15:48:00;12.60;99.90
13960;DHT22;7052;51.050;3.716;2022-09-16T15:50:28;12.60;99.90
13960;DHT22;7052;51.050;3.716;2022-09-16T15:52:58;12.60;99.90
13960;DHT22;7052;51.050;3.716;2022-09-16T15:55:32;12.70;99.90
13960;DHT22;7052;51.050;3.716;2022-09-16T15:58:05;12.70;99.90
13960;DHT22;7052;51.050;3.716;2022-09-16T16:00:53;12.70;99.90
13960;DHT22;7052;51.050;3.716;2022-09-16T16:03:23;12.80;99.90
13960;DHT22;7052;51.050;3.716;2022-09-16T16:05:51;12.80;99.90
13960;DHT22;7052;51.050;3.716;2022-09-16T16:08:36;12.90;99.90
13960;DHT22;7052;51.050;3.716;2022-09-16T16:11:06;13.00;99.90
13960;DHT22;7052;51.050;3.716;2022-09-16T16:13:33;13.00;99.90
13960;DHT22;7052;51.050;3.716;2022-09-16T16:16:00;12.90;99.90
13960;DHT22;7052;51.050;3.716;2022-09-16T16:18:30;12.90;99.90
13960;DHT22;7052;51.050;3.716;2022-09-16T16:20:59;13.00;99.90
13960;DHT22;7052;51.050;3.716;2022-09-16T16:23:26;12.90;99.90
13960;DHT22;7052;51.050;3.716;2022-09-16T16:25:53;13.10;99.90